createdAt,value
2018-12-03T00:00:02.559Z,4
2018-12-03T00:15:03.085Z,4.4
2018-12-03T00:30:03.418Z,4.4
2018-12-03T00:45:03.018Z,4.4
2018-12-03T01:00:02.503Z,4.5
2018-12-03T01:15:02.830Z,4.6
2018-12-03T01:30:03.144Z,4.7
2018-12-03T01:45:03.394Z,4.8
2018-12-03T02:00:02.663Z,4.8
2018-12-03T02:15:03.109Z,4.9
2018-12-03T02:30:02.688Z,4.7
2018-12-03T02:45:04.059Z,4.9
2018-12-03T03:00:02.756Z,4.8
2018-12-03T03:15:03.276Z,4.8
2018-12-03T03:30:02.682Z,4.7
2018-12-03T03:45:03.109Z,4.8
2018-12-03T04:00:02.665Z,4.8
2018-12-03T04:15:02.975Z,4.8
2018-12-03T04:30:03.241Z,5.5
2018-12-03T04:45:02.568Z,6.3
2018-12-03T05:00:02.908Z,7.1
2018-12-03T05:15:03.172Z,7.2
2018-12-03T05:30:02.615Z,7.1
2018-12-03T05:45:03.211Z,7.2
2018-12-03T06:00:02.694Z,7.1
2018-12-03T06:15:03.206Z,6.7
2018-12-03T06:30:03.052Z,7.2
2018-12-03T06:45:02.582Z,7.2
2018-12-03T07:00:03.063Z,7.7
2018-12-03T07:15:02.577Z,7.6
2018-12-03T07:30:02.969Z,7.6
2018-12-03T07:45:03.280Z,7.8
2018-12-03T08:00:02.800Z,7.9
2018-12-03T08:15:03.295Z,8.1
2018-12-03T08:30:02.710Z,8.2
2018-12-03T08:45:03.055Z,8.4
2018-12-03T09:00:03.341Z,8.6
2018-12-03T09:15:02.889Z,8.9
2018-12-03T09:30:03.319Z,9.4
2018-12-03T09:45:02.588Z,9.6
2018-12-03T10:00:02.894Z,9.9
2018-12-03T10:15:03.170Z,10.2
2018-12-03T10:30:02.533Z,10.4
2018-12-03T10:45:03.072Z,10.6
2018-12-03T11:00:03.507Z,10.9
2018-12-03T11:15:02.814Z,11.1
2018-12-03T11:30:03.245Z,11.6
2018-12-03T11:45:02.503Z,12.1
2018-12-03T12:00:02.810Z,12.4
2018-12-03T12:15:03.285Z,12.9
2018-12-03T12:30:02.739Z,12.7
2018-12-03T12:45:03.064Z,12.9
2018-12-03T13:00:03.321Z,12.7
2018-12-03T13:15:02.583Z,12.4
2018-12-03T13:30:02.977Z,12.2
2018-12-03T13:45:02.448Z,12.3
2018-12-03T14:00:02.807Z,12.2
2018-12-03T14:15:03.370Z,12.2
2018-12-03T14:30:02.720Z,12.2
2018-12-03T14:45:03.219Z,12.1
2018-12-03T15:00:02.565Z,11.8
2018-12-03T15:15:03.277Z,11.8
2018-12-03T15:30:02.892Z,11.8
2018-12-03T15:45:03.136Z,11.8
2018-12-03T16:00:03.371Z,11.9
2018-12-03T16:15:02.964Z,11.5
2018-12-03T16:30:03.365Z,11.2
2018-12-03T16:45:02.898Z,10.8
2018-12-03T17:00:03.382Z,10.6
2018-12-03T17:15:02.622Z,10.1
2018-12-03T17:30:03.049Z,10.3
2018-12-03T17:45:03.364Z,10
2018-12-03T18:00:02.663Z,9.8
2018-12-03T18:15:02.977Z,10.4
2018-12-03T18:30:02.501Z,11
2018-12-03T18:45:02.986Z,11.1
2018-12-03T19:00:03.308Z,11.1
2018-12-03T19:15:02.817Z,11.5
2018-12-03T19:30:02.661Z,11.1
2018-12-03T19:45:03.129Z,10.6
2018-12-03T20:00:03.380Z,9.8
2018-12-03T20:15:02.884Z,9.5
2018-12-03T20:30:03.269Z,9.1
2018-12-03T20:45:02.820Z,8.8
2018-12-03T21:00:03.291Z,8.9
2018-12-03T21:15:02.802Z,9.2
2018-12-03T21:30:02.469Z,10.3
2018-12-03T21:45:02.718Z,10.1
2018-12-03T22:00:03.305Z,10.1
2018-12-03T22:15:02.809Z,10.4
2018-12-03T22:30:03.382Z,10.5
2018-12-03T22:45:02.967Z,10.7
2018-12-03T23:00:03.200Z,10.6
2018-12-03T23:15:02.739Z,10.4
2018-12-03T23:30:03.089Z,9.6
2018-12-03T23:45:03.449Z,8.7
